sensor_id;sensor_type;location;lat;lon;timestamp;P1;durP1;ratioP1;P2;durP2;ratioP2
22320;SDS011;11328;53.928;18.522;2023-04-01T00:00:25;45.17;;;20.92;;
22320;SDS011;11328;53.928;18.522;2023-04-01T00:02:52;40.30;;;21.27;;
22320;SDS011;11328;53.928;18.522;2023-04-01T00:05:19;57.55;;;21.88;;
22320;SDS011;11328;53.928;18.522;2023-04-01T00:07:46;45.17;;;22.52;;
22320;SDS011;11328;53.928;18.522;2023-04-01T00:10:13;64.30;;;23.23;;
22320;SDS011;11328;53.928;18.522;2023-04-01T00:12:40;51.80;;;22.92;;
22320;SDS011;11328;53.928;18.522;2023-04-01T00:15:09;47.22;;;22.67;;
22320;SDS011;11328;53.928;18.522;2023-04-01T00:17:37;41.88;;;22.30;;
22320;SDS011;11328;53.928;18.522;2023-04-01T00:20:05;37.30;;;22.50;;
22320;SDS011;11328;53.928;18.522;2023-04-01T00:22:34;39.50;;;22.50;;
22320;SDS011;11328;53.928;18.522;2023-04-01T00:25:01;35.95;;;19.92;;
22320;SDS011;11328;53.928;18.522;2023-04-01T00:27:29;30.50;;;18.27;;
22320;SDS011;11328;53.928;18.522;2023-04-01T00:29:56;41.55;;;19.50;;
22320;SDS011;11328;53.928;18.522;2023-04-01T00:32:23;34.53;;;18.55;;
22320;SDS011;11328;53.928;18.522;2023-04-01T00:34:50;28.85;;;16.33;;
22320;SDS011;11328;53.928;18.522;2023-04-01T00:37:18;34.75;;;16.17;;
22320;SDS011;11328;53.928;18.522;2023-04-01T00:39:47;27.90;;;15.27;;
22320;SDS011;11328;53.928;18.522;2023-04-01T00:42:14;30.58;;;16.10;;
22320;SDS011;11328;53.928;18.522;2023-04-01T00:44:41;39.55;;;17.02;;
22320;SDS011;11328;53.928;18.522;2023-04-01T00:47:09;34.17;;;17.30;;
22320;SDS011;11328;53.928;18.522;2023-04-01T00:49:37;37.08;;;17.88;;
22320;SDS011;11328;53.928;18.522;2023-04-01T00:52:08;41.53;;;18.43;;
22320;SDS011;11328;53.928;18.522;2023-04-01T00:54:40;34.67;;;18.73;;
22320;SDS011;11328;53.928;18.522;2023-04-01T00:57:13;33.03;;;17.83;;
22320;SDS011;11328;53.928;18.522;2023-04-01T01:00:12;36.92;;;19.38;;
22320;SDS011;11328;53.928;18.522;2023-04-01T01:02:41;36.85;;;20.13;;
22320;SDS011;11328;53.928;18.522;2023-04-01T01:05:12;50.40;;;20.58;;
22320;SDS011;11328;53.928;18.522;2023-04-01T01:07:52;38.85;;;20.90;;
22320;SDS011;11328;53.928;18.522;2023-04-01T01:10:38;38.85;;;21.83;;
22320;SDS011;11328;53.928;18.522;2023-04-01T01:16:06;43.72;;;23.23;;
22320;SDS011;11328;53.928;18.522;2023-04-01T01:27:02;49.45;;;24.33;;
22320;SDS011;11328;53.928;18.522;2023-04-01T01:35:16;64.50;;;21.35;;
22320;SDS011;11328;53.928;18.522;2023-04-01T01:37:54;48.35;;;21.00;;
22320;SDS011;11328;53.928;18.522;2023-04-01T01:40:29;55.33;;;22.20;;
22320;SDS011;11328;53.928;18.522;2023-04-01T01:43:04;34.78;;;21.90;;
22320;SDS011;11328;53.928;18.522;2023-04-01T01:45:37;44.25;;;20.45;;
22320;SDS011;11328;53.928;18.522;2023-04-01T01:48:11;46.80;;;20.35;;
22320;SDS011;11328;53.928;18.522;2023-04-01T01:50:39;60.50;;;19.80;;
22320;SDS011;11328;53.928;18.522;2023-04-01T01:53:12;34.65;;;19.42;;
22320;SDS011;11328;53.928;18.522;2023-04-01T01:55:42;45.85;;;20.70;;
22320;SDS011;11328;53.928;18.522;2023-04-01T02:01:07;38.88;;;20.65;;
22320;SDS011;11328;53.928;18.522;2023-04-01T02:03:40;68.88;;;20.77;;
22320;SDS011;11328;53.928;18.522;2023-04-01T02:06:12;62.75;;;20.75;;
22320;SDS011;11328;53.928;18.522;2023-04-01T02:16:46;43.15;;;21.50;;
22320;SDS011;11328;53.928;18.522;2023-04-01T02:19:20;90.13;;;22.77;;
22320;SDS011;11328;53.928;18.522;2023-04-01T02:21:55;47.10;;;21.55;;
22320;SDS011;11328;53.928;18.522;2023-04-01T02:24:27;50.67;;;21.45;;
22320;SDS011;11328;53.928;18.522;2023-04-01T02:26:57;44.58;;;20.95;;
22320;SDS011;11328;53.928;18.522;2023-04-01T02:29:25;45.53;;;20.85;;
22320;SDS011;11328;53.928;18.522;2023-04-01T02:31:53;138.73;;;21.30;;
22320;SDS011;11328;53.928;18.522;2023-04-01T02:34:22;37.60;;;20.88;;
22320;SDS011;11328;53.928;18.522;2023-04-01T02:36:50;47.47;;;21.05;;
22320;SDS011;11328;53.928;18.522;2023-04-01T02:39:18;36.83;;;22.42;;
22320;SDS011;11328;53.928;18.522;2023-04-01T02:41:45;46.63;;;20.83;;
22320;SDS011;11328;53.928;18.522;2023-04-01T02:44:13;37.13;;;21.00;;
22320;SDS011;11328;53.928;18.522;2023-04-01T02:46:42;39.83;;;19.48;;
22320;SDS011;11328;53.928;18.522;2023-04-01T02:49:09;38.38;;;18.70;;
22320;SDS011;11328;53.928;18.522;2023-04-01T02:51:37;31.40;;;16.73;;
22320;SDS011;11328;53.928;18.522;2023-04-01T02:54:04;25.02;;;16.55;;
22320;SDS011;11328;53.928;18.522;2023-04-01T02:56:31;27.88;;;16.58;;
22320;SDS011;11328;53.928;18.522;2023-04-01T02:58:58;30.08;;;15.48;;
22320;SDS011;11328;53.928;18.522;2023-04-01T03:01:24;22.80;;;14.50;;
22320;SDS011;11328;53.928;18.522;2023-04-01T03:03:51;28.23;;;16.70;;
22320;SDS011;11328;53.928;18.522;2023-04-01T03:06:18;24.45;;;16.13;;
22320;SDS011;11328;53.928;18.522;2023-04-01T03:08:45;21.70;;;14.00;;
22320;SDS011;11328;53.928;18.522;2023-04-01T03:11:13;23.10;;;14.55;;
22320;SDS011;11328;53.928;18.522;2023-04-01T03:13:40;21.85;;;13.90;;
22320;SDS011;11328;53.928;18.522;2023-04-01T03:16:07;22.67;;;14.18;;
22320;SDS011;11328;53.928;18.522;2023-04-01T03:18:34;22.83;;;14.52;;
22320;SDS011;11328;53.928;18.522;2023-04-01T03:21:23;24.42;;;15.10;;
22320;SDS011;11328;53.928;18.522;2023-04-01T03:23:50;25.98;;;15.52;;
22320;SDS011;11328;53.928;18.522;2023-04-01T03:26:18;21.15;;;14.18;;
22320;SDS011;11328;53.928;18.522;2023-04-01T03:28:45;24.45;;;15.10;;
22320;SDS011;11328;53.928;18.522;2023-04-01T03:31:12;26.38;;;15.27;;
22320;SDS011;11328;53.928;18.522;2023-04-01T03:33:40;25.48;;;15.30;;
22320;SDS011;11328;53.928;18.522;2023-04-01T03:36:08;26.48;;;15.20;;
22320;SDS011;11328;53.928;18.522;2023-04-01T03:38:35;21.75;;;14.63;;
22320;SDS011;11328;53.928;18.522;2023-04-01T03:41:02;24.52;;;14.75;;
22320;SDS011;11328;53.928;18.522;2023-04-01T03:43:29;26.35;;;14.90;;
22320;SDS011;11328;53.928;18.522;2023-04-01T03:45:56;22.50;;;14.63;;
22320;SDS011;11328;53.928;18.522;2023-04-01T03:48:24;22.58;;;15.77;;
22320;SDS011;11328;53.928;18.522;2023-04-01T03:50:52;20.52;;;13.88;;
22320;SDS011;11328;53.928;18.522;2023-04-01T03:53:19;24.42;;;13.70;;
22320;SDS011;11328;53.928;18.522;2023-04-01T03:55:46;21.13;;;13.50;;
22320;SDS011;11328;53.928;18.522;2023-04-01T03:58:13;19.73;;;12.68;;
22320;SDS011;11328;53.928;18.522;2023-04-01T04:00:40;18.40;;;11.75;;
22320;SDS011;11328;53.928;18.522;2023-04-01T04:03:07;19.23;;;11.43;;
22320;SDS011;11328;53.928;18.522;2023-04-01T04:05:34;17.60;;;11.50;;
22320;SDS011;11328;53.928;18.522;2023-04-01T04:08:01;14.32;;;10.20;;
22320;SDS011;11328;53.928;18.522;2023-04-01T04:10:29;15.07;;;9.23;;
22320;SDS011;11328;53.928;18.522;2023-04-01T04:12:56;13.07;;;9.10;;
22320;SDS011;11328;53.928;18.522;2023-04-01T04:15:23;15.52;;;8.73;;
22320;SDS011;11328;53.928;18.522;2023-04-01T04:17:50;14.90;;;9.18;;
22320;SDS011;11328;53.928;18.522;2023-04-01T04:20:17;13.02;;;8.50;;
22320;SDS011;11328;53.928;18.522;2023-04-01T04:22:44;13.55;;;8.55;;
22320;SDS011;11328;53.928;18.522;2023-04-01T04:25:11;15.30;;;9.52;;
22320;SDS011;11328;53.928;18.522;2023-04-01T04:27:38;16.10;;;9.32;;
22320;SDS011;11328;53.928;18.522;2023-04-01T04:30:05;16.00;;;9.43;;
22320;SDS011;11328;53.928;18.522;2023-04-01T04:32:34;16.92;;;9.73;;
22320;SDS011;11328;53.928;18.522;2023-04-01T04:35:01;16.10;;;9.13;;
22320;SDS011;11328;53.928;18.522;2023-04-01T04:37:32;15.13;;;9.48;;
22320;SDS011;11328;53.928;18.522;2023-04-01T04:39:59;20.30;;;11.20;;
22320;SDS011;11328;53.928;18.522;2023-04-01T04:42:26;15.95;;;11.00;;
22320;SDS011;11328;53.928;18.522;2023-04-01T04:44:53;19.48;;;11.00;;
22320;SDS011;11328;53.928;18.522;2023-04-01T04:47:20;19.27;;;11.52;;
22320;SDS011;11328;53.928;18.522;2023-04-01T04:49:47;18.67;;;11.73;;
22320;SDS011;11328;53.928;18.522;2023-04-01T04:52:14;22.65;;;12.48;;
22320;SDS011;11328;53.928;18.522;2023-04-01T04:54:41;20.08;;;12.35;;
22320;SDS011;11328;53.928;18.522;2023-04-01T04:57:08;29.42;;;12.15;;
22320;SDS011;11328;53.928;18.522;2023-04-01T04:59:35;19.10;;;12.43;;
22320;SDS011;11328;53.928;18.522;2023-04-01T05:02:02;18.55;;;12.82;;
22320;SDS011;11328;53.928;18.522;2023-04-01T05:04:29;23.70;;;13.73;;
22320;SDS011;11328;53.928;18.522;2023-04-01T05:07:02;21.60;;;13.55;;
22320;SDS011;11328;53.928;18.522;2023-04-01T05:09:29;25.77;;;14.10;;
22320;SDS011;11328;53.928;18.522;2023-04-01T05:11:57;23.13;;;14.75;;
22320;SDS011;11328;53.928;18.522;2023-04-01T05:14:24;20.02;;;13.98;;
22320;SDS011;11328;53.928;18.522;2023-04-01T05:16:51;18.38;;;13.77;;
22320;SDS011;11328;53.928;18.522;2023-04-01T05:19:18;23.40;;;14.20;;
22320;SDS011;11328;53.928;18.522;2023-04-01T05:21:45;23.73;;;13.55;;
22320;SDS011;11328;53.928;18.522;2023-04-01T05:24:12;23.20;;;14.45;;
22320;SDS011;11328;53.928;18.522;2023-04-01T05:26:39;20.08;;;14.45;;
22320;SDS011;11328;53.928;18.522;2023-04-01T05:29:06;19.30;;;13.52;;
22320;SDS011;11328;53.928;18.522;2023-04-01T05:31:33;25.23;;;14.48;;
22320;SDS011;11328;53.928;18.522;2023-04-01T05:34:00;27.98;;;16.13;;
22320;SDS011;11328;53.928;18.522;2023-04-01T05:36:27;22.17;;;13.98;;
22320;SDS011;11328;53.928;18.522;2023-04-01T05:38:55;24.35;;;15.23;;
22320;SDS011;11328;53.928;18.522;2023-04-01T05:41:22;28.70;;;13.57;;
22320;SDS011;11328;53.928;18.522;2023-04-01T05:43:49;23.20;;;13.82;;
22320;SDS011;11328;53.928;18.522;2023-04-01T05:46:16;24.17;;;14.25;;
22320;SDS011;11328;53.928;18.522;2023-04-01T05:48:43;20.33;;;13.68;;
22320;SDS011;11328;53.928;18.522;2023-04-01T05:51:13;21.00;;;13.55;;
22320;SDS011;11328;53.928;18.522;2023-04-01T05:53:41;19.60;;;11.57;;
22320;SDS011;11328;53.928;18.522;2023-04-01T05:56:09;19.02;;;11.38;;
22320;SDS011;11328;53.928;18.522;2023-04-01T05:58:36;21.58;;;10.43;;
22320;SDS011;11328;53.928;18.522;2023-04-01T06:01:08;18.58;;;10.60;;
22320;SDS011;11328;53.928;18.522;2023-04-01T06:03:41;22.88;;;10.52;;
22320;SDS011;11328;53.928;18.522;2023-04-01T06:06:11;18.30;;;10.90;;
22320;SDS011;11328;53.928;18.522;2023-04-01T06:08:42;19.83;;;11.02;;
22320;SDS011;11328;53.928;18.522;2023-04-01T06:25:38;27.80;;;13.85;;
22320;SDS011;11328;53.928;18.522;2023-04-01T06:52:50;18.80;;;9.80;;
22320;SDS011;11328;53.928;18.522;2023-04-01T06:55:42;16.33;;;9.93;;
22320;SDS011;11328;53.928;18.522;2023-04-01T06:58:20;25.55;;;10.07;;
22320;SDS011;11328;53.928;18.522;2023-04-01T07:01:12;28.90;;;10.40;;
22320;SDS011;11328;53.928;18.522;2023-04-01T07:03:50;28.02;;;10.38;;
22320;SDS011;11328;53.928;18.522;2023-04-01T07:07:03;20.33;;;10.90;;
22320;SDS011;11328;53.928;18.522;2023-04-01T07:09:41;25.30;;;10.38;;
22320;SDS011;11328;53.928;18.522;2023-04-01T07:14:49;24.30;;;9.10;;
22320;SDS011;11328;53.928;18.522;2023-04-01T07:17:22;17.67;;;8.40;;
22320;SDS011;11328;53.928;18.522;2023-04-01T07:22:50;18.00;;;7.82;;
22320;SDS011;11328;53.928;18.522;2023-04-01T07:25:24;18.65;;;8.23;;
22320;SDS011;11328;53.928;18.522;2023-04-01T07:27:56;25.00;;;8.25;;
22320;SDS011;11328;53.928;18.522;2023-04-01T07:30:38;24.45;;;7.75;;
22320;SDS011;11328;53.928;18.522;2023-04-01T07:36:13;16.63;;;7.50;;
22320;SDS011;11328;53.928;18.522;2023-04-01T07:39:06;19.75;;;7.30;;
22320;SDS011;11328;53.928;18.522;2023-04-01T07:42:14;16.35;;;7.20;;
22320;SDS011;11328;53.928;18.522;2023-04-01T07:45:31;19.98;;;7.85;;
22320;SDS011;11328;53.928;18.522;2023-04-01T08:02:55;27.30;;;9.63;;
22320;SDS011;11328;53.928;18.522;2023-04-01T08:08:19;17.10;;;6.80;;
22320;SDS011;11328;53.928;18.522;2023-04-01T08:14:02;11.90;;;6.22;;
22320;SDS011;11328;53.928;18.522;2023-04-01T08:22:02;16.20;;;8.95;;
22320;SDS011;11328;53.928;18.522;2023-04-01T08:24:46;14.93;;;8.50;;
22320;SDS011;11328;53.928;18.522;2023-04-01T08:27:20;17.25;;;9.43;;
22320;SDS011;11328;53.928;18.522;2023-04-01T08:29:58;16.13;;;8.20;;
22320;SDS011;11328;53.928;18.522;2023-04-01T08:32:43;13.43;;;7.82;;
22320;SDS011;11328;53.928;18.522;2023-04-01T08:35:40;12.32;;;7.75;;
22320;SDS011;11328;53.928;18.522;2023-04-01T08:38:30;14.23;;;8.18;;
22320;SDS011;11328;53.928;18.522;2023-04-01T09:05:16;10.90;;;5.15;;
22320;SDS011;11328;53.928;18.522;2023-04-01T09:11:42;8.35;;;5.15;;
22320;SDS011;11328;53.928;18.522;2023-04-01T09:30:05;10.43;;;5.32;;
22320;SDS011;11328;53.928;18.522;2023-04-01T09:39:13;9.07;;;5.30;;
22320;SDS011;11328;53.928;18.522;2023-04-01T09:46:02;8.13;;;4.55;;
22320;SDS011;11328;53.928;18.522;2023-04-01T10:03:43;11.65;;;6.38;;
22320;SDS011;11328;53.928;18.522;2023-04-01T10:27:49;9.45;;;5.32;;
22320;SDS011;11328;53.928;18.522;2023-04-01T10:33:24;8.52;;;5.00;;
22320;SDS011;11328;53.928;18.522;2023-04-01T10:48:18;7.63;;;4.15;;
22320;SDS011;11328;53.928;18.522;2023-04-01T10:54:25;7.25;;;4.40;;
22320;SDS011;11328;53.928;18.522;2023-04-01T11:18:23;9.65;;;4.80;;
22320;SDS011;11328;53.928;18.522;2023-04-01T11:28:01;8.82;;;5.28;;
22320;SDS011;11328;53.928;18.522;2023-04-01T11:30:25;11.00;;;6.03;;
22320;SDS011;11328;53.928;18.522;2023-04-01T11:42:30;11.68;;;5.43;;
22320;SDS011;11328;53.928;18.522;2023-04-01T11:57:16;17.00;;;9.50;;
22320;SDS011;11328;53.928;18.522;2023-04-01T11:59:52;17.63;;;10.52;;
22320;SDS011;11328;53.928;18.522;2023-04-01T12:03:20;15.60;;;8.88;;
22320;SDS011;11328;53.928;18.522;2023-04-01T12:09:14;13.57;;;5.93;;
22320;SDS011;11328;53.928;18.522;2023-04-01T12:20:26;11.52;;;5.55;;
22320;SDS011;11328;53.928;18.522;2023-04-01T12:32:22;8.00;;;3.70;;
22320;SDS011;11328;53.928;18.522;2023-04-01T12:46:49;14.95;;;9.80;;
22320;SDS011;11328;53.928;18.522;2023-04-01T13:01:07;12.10;;;6.10;;
22320;SDS011;11328;53.928;18.522;2023-04-01T13:16:26;9.60;;;4.07;;
22320;SDS011;11328;53.928;18.522;2023-04-01T13:19:07;10.23;;;3.60;;
22320;SDS011;11328;53.928;18.522;2023-04-01T13:24:45;9.43;;;4.13;;
22320;SDS011;11328;53.928;18.522;2023-04-01T13:27:54;8.43;;;4.00;;
22320;SDS011;11328;53.928;18.522;2023-04-01T13:30:36;12.82;;;5.85;;
22320;SDS011;11328;53.928;18.522;2023-04-01T14:08:34;15.38;;;7.32;;
22320;SDS011;11328;53.928;18.522;2023-04-01T14:14:22;25.30;;;7.75;;
22320;SDS011;11328;53.928;18.522;2023-04-01T14:20:27;18.50;;;7.55;;
22320;SDS011;11328;53.928;18.522;2023-04-01T14:26:13;8.85;;;3.67;;
22320;SDS011;11328;53.928;18.522;2023-04-01T14:52:04;8.30;;;4.45;;
22320;SDS011;11328;53.928;18.522;2023-04-01T14:54:42;10.45;;;4.95;;
22320;SDS011;11328;53.928;18.522;2023-04-01T14:59:59;39.30;;;18.38;;
22320;SDS011;11328;53.928;18.522;2023-04-01T15:05:39;7.80;;;4.13;;
22320;SDS011;11328;53.928;18.522;2023-04-01T15:08:51;8.43;;;3.92;;
22320;SDS011;11328;53.928;18.522;2023-04-01T15:18:30;10.70;;;4.55;;
22320;SDS011;11328;53.928;18.522;2023-04-01T15:36:53;12.05;;;6.65;;
22320;SDS011;11328;53.928;18.522;2023-04-01T15:45:57;13.75;;;6.10;;
22320;SDS011;11328;53.928;18.522;2023-04-01T15:51:45;11.52;;;6.57;;
22320;SDS011;11328;53.928;18.522;2023-04-01T16:00:29;11.65;;;5.97;;
22320;SDS011;11328;53.928;18.522;2023-04-01T16:08:57;10.32;;;5.00;;
22320;SDS011;11328;53.928;18.522;2023-04-01T16:12:07;10.13;;;4.70;;
22320;SDS011;11328;53.928;18.522;2023-04-01T16:18:53;13.63;;;5.88;;
22320;SDS011;11328;53.928;18.522;2023-04-01T16:30:57;21.23;;;9.17;;
22320;SDS011;11328;53.928;18.522;2023-04-01T16:36:32;17.77;;;9.07;;
22320;SDS011;11328;53.928;18.522;2023-04-01T16:39:42;17.27;;;8.27;;
22320;SDS011;11328;53.928;18.522;2023-04-01T16:42:22;19.15;;;9.68;;
22320;SDS011;11328;53.928;18.522;2023-04-01T16:45:08;12.13;;;7.00;;
22320;SDS011;11328;53.928;18.522;2023-04-01T16:48:12;18.02;;;8.60;;
22320;SDS011;11328;53.928;18.522;2023-04-01T16:50:44;17.95;;;8.98;;
22320;SDS011;11328;53.928;18.522;2023-04-01T16:56:24;12.60;;;6.20;;
22320;SDS011;11328;53.928;18.522;2023-04-01T17:04:18;13.52;;;7.20;;
22320;SDS011;11328;53.928;18.522;2023-04-01T17:27:48;18.67;;;9.70;;
22320;SDS011;11328;53.928;18.522;2023-04-01T17:30:35;16.80;;;8.27;;
22320;SDS011;11328;53.928;18.522;2023-04-01T17:33:37;21.98;;;10.85;;
22320;SDS011;11328;53.928;18.522;2023-04-01T17:36:36;22.23;;;10.35;;
22320;SDS011;11328;53.928;18.522;2023-04-01T17:42:42;17.92;;;10.45;;
22320;SDS011;11328;53.928;18.522;2023-04-01T17:45:40;13.60;;;7.57;;
22320;SDS011;11328;53.928;18.522;2023-04-01T17:59:59;13.55;;;7.45;;
22320;SDS011;11328;53.928;18.522;2023-04-01T18:09:14;17.60;;;9.43;;
22320;SDS011;11328;53.928;18.522;2023-04-01T18:12:15;19.58;;;8.68;;
22320;SDS011;11328;53.928;18.522;2023-04-01T18:15:05;14.55;;;7.43;;
22320;SDS011;11328;53.928;18.522;2023-04-01T18:21:42;15.82;;;7.28;;
22320;SDS011;11328;53.928;18.522;2023-04-01T18:26:29;12.77;;;6.87;;
22320;SDS011;11328;53.928;18.522;2023-04-01T18:31:45;12.20;;;6.90;;
22320;SDS011;11328;53.928;18.522;2023-04-01T18:40:12;20.08;;;8.90;;
22320;SDS011;11328;53.928;18.522;2023-04-01T18:43:12;16.10;;;8.68;;
22320;SDS011;11328;53.928;18.522;2023-04-01T18:46:49;16.58;;;8.43;;
22320;SDS011;11328;53.928;18.522;2023-04-01T18:49:00;13.15;;;6.60;;
22320;SDS011;11328;53.928;18.522;2023-04-01T18:52:25;17.02;;;8.40;;
22320;SDS011;11328;53.928;18.522;2023-04-01T18:57:50;20.77;;;9.10;;
22320;SDS011;11328;53.928;18.522;2023-04-01T19:00:39;17.02;;;8.88;;
22320;SDS011;11328;53.928;18.522;2023-04-01T19:03:24;18.15;;;9.57;;
22320;SDS011;11328;53.928;18.522;2023-04-01T19:06:26;27.80;;;11.35;;
22320;SDS011;11328;53.928;18.522;2023-04-01T19:09:23;21.92;;;10.80;;
22320;SDS011;11328;53.928;18.522;2023-04-01T19:12:32;16.08;;;8.70;;
22320;SDS011;11328;53.928;18.522;2023-04-01T19:21:53;17.20;;;7.53;;
22320;SDS011;11328;53.928;18.522;2023-04-01T19:36:09;15.02;;;8.25;;
22320;SDS011;11328;53.928;18.522;2023-04-01T19:45:29;17.30;;;7.63;;
22320;SDS011;11328;53.928;18.522;2023-04-01T19:51:46;15.15;;;7.65;;
22320;SDS011;11328;53.928;18.522;2023-04-01T20:15:36;14.13;;;7.45;;
22320;SDS011;11328;53.928;18.522;2023-04-01T20:18:23;12.85;;;6.57;;
22320;SDS011;11328;53.928;18.522;2023-04-01T20:21:19;14.68;;;6.45;;
22320;SDS011;11328;53.928;18.522;2023-04-01T20:24:16;12.63;;;6.25;;
22320;SDS011;11328;53.928;18.522;2023-04-01T20:32:49;10.98;;;5.70;;
22320;SDS011;11328;53.928;18.522;2023-04-01T20:42:29;13.50;;;6.25;;
22320;SDS011;11328;53.928;18.522;2023-04-01T21:10:43;9.95;;;5.60;;
22320;SDS011;11328;53.928;18.522;2023-04-01T21:28:05;11.18;;;5.10;;
22320;SDS011;11328;53.928;18.522;2023-04-01T21:31:08;10.82;;;4.95;;
22320;SDS011;11328;53.928;18.522;2023-04-01T21:37:17;9.02;;;4.55;;
22320;SDS011;11328;53.928;18.522;2023-04-01T21:43:09;10.80;;;4.63;;
22320;SDS011;11328;53.928;18.522;2023-04-01T22:00:33;8.40;;;4.25;;
22320;SDS011;11328;53.928;18.522;2023-04-01T22:18:31;6.75;;;3.33;;
22320;SDS011;11328;53.928;18.522;2023-04-01T22:21:12;6.63;;;3.47;;
22320;SDS011;11328;53.928;18.522;2023-04-01T22:24:19;8.25;;;3.60;;
22320;SDS011;11328;53.928;18.522;2023-04-01T22:27:27;7.18;;;3.22;;
22320;SDS011;11328;53.928;18.522;2023-04-01T22:30:25;8.10;;;3.67;;
22320;SDS011;11328;53.928;18.522;2023-04-01T22:45:28;9.95;;;4.82;;
22320;SDS011;11328;53.928;18.522;2023-04-01T22:50:56;7.30;;;3.63;;
22320;SDS011;11328;53.928;18.522;2023-04-01T22:53:57;10.27;;;5.40;;
22320;SDS011;11328;53.928;18.522;2023-04-01T22:56:57;9.30;;;4.43;;
22320;SDS011;11328;53.928;18.522;2023-04-01T22:59:35;9.15;;;4.25;;
22320;SDS011;11328;53.928;18.522;2023-04-01T23:02:15;9.85;;;4.53;;
22320;SDS011;11328;53.928;18.522;2023-04-01T23:04:56;8.65;;;4.20;;
22320;SDS011;11328;53.928;18.522;2023-04-01T23:10:26;8.70;;;4.78;;
22320;SDS011;11328;53.928;18.522;2023-04-01T23:13:10;8.98;;;4.50;;
22320;SDS011;11328;53.928;18.522;2023-04-01T23:15:48;9.25;;;4.93;;
22320;SDS011;11328;53.928;18.522;2023-04-01T23:21:18;10.52;;;5.18;;
22320;SDS011;11328;53.928;18.522;2023-04-01T23:24:36;9.07;;;5.18;;
22320;SDS011;11328;53.928;18.522;2023-04-01T23:27:32;10.27;;;5.53;;
22320;SDS011;11328;53.928;18.522;2023-04-01T23:30:45;10.10;;;4.72;;
22320;SDS011;11328;53.928;18.522;2023-04-01T23:35:49;6.68;;;3.70;;
22320;SDS011;11328;53.928;18.522;2023-04-01T23:38:22;10.07;;;4.90;;
22320;SDS011;11328;53.928;18.522;2023-04-01T23:40:53;9.93;;;4.43;;
22320;SDS011;11328;53.928;18.522;2023-04-01T23:43:25;8.30;;;5.15;;
22320;SDS011;11328;53.928;18.522;2023-04-01T23:46:00;8.05;;;4.07;;
22320;SDS011;11328;53.928;18.522;2023-04-01T23:48:33;7.22;;;3.72;;
22320;SDS011;11328;53.928;18.522;2023-04-01T23:54:00;6.55;;;3.67;;
22320;SDS011;11328;53.928;18.522;2023-04-01T23:56:46;7.70;;;4.03;;
22320;SDS011;11328;53.928;18.522;2023-04-01T23:59:19;9.90;;;4.28;;
